Time;durP1;ratioP1;P1;durP2;ratioP2;P2;SDS_P1;SDS_P2;PMS_P1;PMS_P2;Temp;Humidity;BMP_temperature;BMP_pressure;BME280_temperature;BME280_humidity;BME280_pressure;Samples;Min_cycle;Max_cycle;Signal;HPM_P1;HPM_P2
2021/01/30 00:00:35;;;;;;;4.57;2.45;;;3.00;90.80;;;;;;4998758;28;20033;-75
2021/01/30 00:03:01;;;;;;;7.90;2.80;;;2.90;90.50;;;;;;4994463;28;20070;-74
2021/01/30 00:05:28;;;;;;;4.78;2.28;;;2.80;90.40;;;;;;4989830;28;20057;-74
2021/01/30 00:07:54;;;;;;;4.97;2.10;;;2.80;90.40;;;;;;4990743;28;20091;-75
2021/01/30 00:10:20;;;;;;;5.80;2.30;;;2.70;90.40;;;;;;4984939;28;20047;-74
2021/01/30 00:12:46;;;;;;;5.88;1.95;;;2.70;90.40;;;;;;5004511;28;20473;-75
2021/01/30 00:15:14;;;;;;;5.60;2.17;;;2.70;90.40;;;;;;4989480;28;20034;-74
2021/01/30 00:17:39;;;;;;;3.13;1.92;;;2.70;90.30;;;;;;4989843;28;20046;-75
2021/01/30 00:20:07;;;;;;;3.97;1.83;;;2.70;90.00;;;;;;4991482;28;20033;-75
2021/01/30 00:22:33;;;;;;;3.20;2.03;;;2.70;89.30;;;;;;4989890;28;20035;-74
2021/01/30 00:24:59;;;;;;;5.03;2.50;;;2.60;89.60;;;;;;4989229;28;20147;-75
2021/01/30 00:27:26;;;;;;;4.97;2.65;;;2.60;89.10;;;;;;4983918;28;20027;-74
2021/01/30 00:29:51;;;;;;;4.07;2.53;;;2.50;88.80;;;;;;4976318;28;20023;-74
2021/01/30 00:32:20;;;;;;;3.97;2.47;;;2.50;88.80;;;;;;4997977;28;20045;-74
2021/01/30 00:34:46;;;;;;;4.28;2.88;;;2.40;88.80;;;;;;4989929;28;20117;-75
2021/01/30 00:37:22;;;;;;;5.05;3.10;;;2.40;88.90;;;;;;4991520;28;20065;-75
2021/01/30 00:39:51;;;;;;;6.10;4.15;;;2.40;89.20;;;;;;4997127;28;20026;-75
2021/01/30 00:42:19;;;;;;;7.28;4.53;;;2.40;88.80;;;;;;4990142;28;20034;-75
2021/01/30 00:44:45;;;;;;;7.53;4.55;;;2.30;88.80;;;;;;4989990;28;20023;-74
2021/01/30 00:47:11;;;;;;;6.43;4.65;;;2.30;89.00;;;;;;4988956;28;20025;-74
2021/01/30 00:49:42;;;;;;;10.95;5.13;;;2.20;89.10;;;;;;4989638;28;20031;-74
2021/01/30 00:52:09;;;;;;;8.40;5.28;;;2.20;89.80;;;;;;4997297;28;20368;-74
2021/01/30 00:54:35;;;;;;;8.13;5.13;;;2.20;89.20;;;;;;4989020;28;20036;-75
2021/01/30 00:57:00;;;;;;;6.68;5.15;;;2.20;89.40;;;;;;5006703;28;20103;-74
2021/01/30 00:59:26;;;;;;;8.82;6.10;;;2.20;89.50;;;;;;4993308;28;20125;-74
2021/01/30 01:01:52;;;;;;;9.23;6.03;;;2.20;89.60;;;;;;4988660;28;20030;-73
2021/01/30 01:04:20;;;;;;;7.32;6.07;;;2.10;89.70;;;;;;4989375;28;20037;-75
2021/01/30 01:06:45;;;;;;;9.30;6.95;;;2.10;89.80;;;;;;4983913;28;20057;-75
2021/01/30 01:09:11;;;;;;;9.25;6.45;;;2.10;89.90;;;;;;4988708;28;20066;-75
2021/01/30 01:11:39;;;;;;;8.25;6.43;;;2.10;90.00;;;;;;4991718;28;20026;-75
2021/01/30 01:14:06;;;;;;;11.05;7.72;;;2.10;90.00;;;;;;5001134;28;20038;-75
2021/01/30 01:16:32;;;;;;;10.95;7.18;;;2.10;90.10;;;;;;4987482;28;20058;-76
2021/01/30 01:18:58;;;;;;;11.57;7.88;;;2.10;90.10;;;;;;4988582;28;20476;-75
2021/01/30 01:21:23;;;;;;;11.20;7.93;;;2.10;90.10;;;;;;4985749;28;20037;-75
2021/01/30 01:23:49;;;;;;;15.45;9.55;;;2.10;90.00;;;;;;4990982;28;20026;-75
2021/01/30 01:26:17;;;;;;;11.98;8.13;;;2.10;90.10;;;;;;4994158;28;20029;-75
2021/01/30 01:28:43;;;;;;;12.80;9.27;;;2.10;90.10;;;;;;4992489;28;20141;-75
2021/01/30 01:31:11;;;;;;;15.25;9.68;;;2.00;90.10;;;;;;4994466;28;20026;-75
2021/01/30 01:33:37;;;;;;;14.23;10.70;;;2.00;90.20;;;;;;5007060;28;20030;-75
2021/01/30 01:36:04;;;;;;;13.30;10.73;;;1.90;90.10;;;;;;4982607;28;20035;-74
2021/01/30 01:38:30;;;;;;;16.75;11.48;;;1.90;90.30;;;;;;4986656;28;20023;-75
2021/01/30 01:40:55;;;;;;;15.30;10.88;;;1.90;90.20;;;;;;4989981;28;20075;-75
2021/01/30 01:43:26;;;;;;;17.50;11.80;;;1.90;90.30;;;;;;5003368;28;20028;-73
2021/01/30 01:46:25;;;;;;;16.70;12.40;;;1.90;90.30;;;;;;5023754;28;20043;-75
2021/01/30 01:49:02;;;;;;;18.27;12.68;;;1.90;90.30;;;;;;4983363;28;20435;-75
2021/01/30 01:51:43;;;;;;;17.75;12.45;;;1.90;90.40;;;;;;4987760;28;20035;-74
2021/01/30 01:54:17;;;;;;;16.83;12.10;;;1.90;90.50;;;;;;4995131;28;20031;-74
2021/01/30 01:56:44;;;;;;;17.75;12.40;;;1.90;90.50;;;;;;4987783;28;20075;-75
2021/01/30 01:59:14;;;;;;;20.15;14.07;;;1.80;90.50;;;;;;4990803;28;20050;-75
2021/01/30 02:01:40;;;;;;;19.05;13.35;;;1.80;90.50;;;;;;4996910;28;20041;-75
2021/01/30 02:04:11;;;;;;;19.02;13.25;;;1.80;90.50;;;;;;4999886;28;20026;-75
2021/01/30 02:06:40;;;;;;;20.13;14.07;;;1.70;90.50;;;;;;4991901;28;20027;-75
2021/01/30 02:09:11;;;;;;;19.05;12.65;;;1.70;90.60;;;;;;4991392;28;20081;-75
2021/01/30 02:11:37;;;;;;;23.30;15.32;;;1.70;90.60;;;;;;4994121;28;20030;-75
2021/01/30 02:14:05;;;;;;;20.52;14.18;;;1.60;90.70;;;;;;4986333;28;20496;-75
2021/01/30 02:16:47;;;;;;;21.42;14.52;;;1.60;90.70;;;;;;4988573;28;20030;-75
2021/01/30 02:19:44;;;;;;;23.33;15.45;;;1.60;90.80;;;;;;4980287;28;20404;-75
2021/01/30 02:22:47;;;;;;;20.80;14.68;;;1.60;90.80;;;;;;4986402;28;20501;-75
2021/01/30 02:25:49;;;;;;;20.83;14.15;;;1.60;90.90;;;;;;4999483;28;20033;-75
2021/01/30 02:28:25;;;;;;;20.77;13.10;;;1.60;90.90;;;;;;4992573;28;20395;-75
2021/01/30 02:31:29;;;;;;;23.92;16.48;;;1.60;90.80;;;;;;4993306;28;20037;-75
2021/01/30 02:34:35;;;;;;;20.17;12.63;;;1.60;90.90;;;;;;4992418;28;20038;-75
2021/01/30 02:37:03;;;;;;;18.27;12.80;;;1.50;90.80;;;;;;4989480;28;20118;-75
2021/01/30 02:39:52;;;;;;;18.55;13.07;;;1.50;90.80;;;;;;4996665;28;20878;-75
2021/01/30 02:42:32;;;;;;;16.23;12.00;;;1.50;90.60;;;;;;4978273;28;20027;-74
2021/01/30 02:45:17;;;;;;;17.27;11.88;;;1.50;90.50;;;;;;4993069;28;20045;-74
2021/01/30 02:47:52;;;;;;;14.55;9.60;;;1.50;90.60;;;;;;4991832;28;20023;-74
2021/01/30 02:50:23;;;;;;;13.73;10.13;;;1.40;90.40;;;;;;4991487;28;20018;-74
2021/01/30 02:52:51;;;;;;;11.98;9.65;;;1.40;90.30;;;;;;4988153;28;20030;-74
2021/01/30 02:55:19;;;;;;;11.82;9.18;;;1.40;90.10;;;;;;4989074;28;20117;-74
2021/01/30 02:57:45;;;;;;;13.77;9.48;;;1.40;90.00;;;;;;4997807;28;20400;-74
2021/01/30 03:00:14;;;;;;;12.02;8.00;;;1.40;90.00;;;;;;5004498;28;20034;-74
2021/01/30 03:02:40;;;;;;;11.98;8.52;;;1.40;90.00;;;;;;5004098;28;20147;-75
2021/01/30 03:05:10;;;;;;;11.65;8.77;;;1.40;89.90;;;;;;5034499;28;20024;-75
2021/01/30 03:07:49;;;;;;;12.02;9.13;;;1.30;89.50;;;;;;4990447;28;20030;-75
2021/01/30 03:10:25;;;;;;;13.65;8.93;;;1.30;89.60;;;;;;4987746;28;20508;-75
2021/01/30 03:13:15;;;;;;;13.85;9.95;;;1.30;89.80;;;;;;4986340;28;20033;-75
2021/01/30 03:16:04;;;;;;;12.93;9.45;;;1.30;89.60;;;;;;4992804;28;20030;-75
2021/01/30 03:18:35;;;;;;;13.68;9.30;;;1.30;89.60;;;;;;4997192;28;20030;-75
2021/01/30 03:21:04;;;;;;;12.27;8.93;;;1.30;89.80;;;;;;4987844;28;20076;-75
2021/01/30 03:23:29;;;;;;;13.10;9.80;;;1.40;89.90;;;;;;4989538;28;20031;-75
2021/01/30 03:25:59;;;;;;;12.45;9.55;;;1.30;89.60;;;;;;4989137;28;20666;-74
2021/01/30 03:28:25;;;;;;;14.90;10.70;;;1.40;89.60;;;;;;4992668;28;20022;-74
2021/01/30 03:30:51;;;;;;;15.10;10.88;;;1.30;89.60;;;;;;4987178;28;20026;-74
2021/01/30 03:33:16;;;;;;;15.15;9.95;;;1.30;89.40;;;;;;4985615;28;20124;-75
2021/01/30 03:35:42;;;;;;;13.35;9.40;;;1.20;89.40;;;;;;4991149;28;20034;-74
2021/01/30 03:38:08;;;;;;;17.15;10.98;;;1.20;89.60;;;;;;4992051;28;20388;-75
2021/01/30 03:40:34;;;;;;;16.08;10.88;;;1.30;90.10;;;;;;4990647;28;20034;-75
2021/01/30 03:42:59;;;;;;;14.68;10.75;;;1.30;89.70;;;;;;4986863;28;20061;-74
2021/01/30 03:45:29;;;;;;;13.48;9.77;;;1.30;89.80;;;;;;4989527;28;20464;-74
2021/01/30 03:47:54;;;;;;;15.00;10.73;;;1.30;89.80;;;;;;4983773;28;20026;-74
2021/01/30 03:50:21;;;;;;;14.98;8.85;;;1.30;89.70;;;;;;4990839;28;20445;-75
2021/01/30 03:52:47;;;;;;;15.35;10.57;;;1.30;89.60;;;;;;4988921;28;20042;-75
2021/01/30 03:55:16;;;;;;;13.38;9.98;;;1.30;89.60;;;;;;4978495;28;20037;-74
2021/01/30 03:57:42;;;;;;;13.95;10.07;;;1.30;89.50;;;;;;4987724;28;20484;-75
2021/01/30 04:00:10;;;;;;;13.73;9.68;;;1.30;89.60;;;;;;4992606;28;20117;-75
2021/01/30 04:02:36;;;;;;;14.90;10.00;;;1.30;89.70;;;;;;4977661;28;20042;-75
2021/01/30 04:05:02;;;;;;;16.02;10.95;;;1.30;89.70;;;;;;4990025;28;20027;-75
2021/01/30 04:07:28;;;;;;;13.57;10.23;;;1.30;89.60;;;;;;4986529;28;20093;-75
2021/01/30 04:09:54;;;;;;;16.75;10.02;;;1.30;89.80;;;;;;4985466;28;20584;-75
2021/01/30 04:12:19;;;;;;;14.52;10.23;;;1.30;89.80;;;;;;5003334;28;20387;-75
2021/01/30 04:14:45;;;;;;;15.82;9.70;;;1.30;89.90;;;;;;4990882;28;20030;-75
2021/01/30 04:17:11;;;;;;;12.25;8.32;;;1.40;89.90;;;;;;4989699;28;20041;-75
2021/01/30 04:19:37;;;;;;;13.10;9.57;;;1.30;89.90;;;;;;4989050;28;20555;-75
2021/01/30 04:22:04;;;;;;;13.77;8.10;;;1.30;89.70;;;;;;4990275;28;20172;-74
2021/01/30 04:24:30;;;;;;;13.88;9.02;;;1.30;89.70;;;;;;4989117;28;20023;-75
2021/01/30 04:26:55;;;;;;;14.00;8.20;;;1.30;89.90;;;;;;4985416;28;20033;-74
2021/01/30 04:29:21;;;;;;;13.15;7.80;;;1.30;90.00;;;;;;4988030;28;20030;-75
2021/01/30 04:31:54;;;;;;;13.15;9.30;;;1.30;90.00;;;;;;4989973;28;20476;-74
2021/01/30 04:34:20;;;;;;;;;;;1.30;90.00;;;;;;5009369;28;20034;-75
2021/01/30 04:36:45;;;;;;;14.20;9.82;;;1.20;89.60;;;;;;5016061;28;19913;-75
2021/01/30 04:39:11;;;;;;;12.00;8.98;;;1.20;89.80;;;;;;4991037;28;20033;-75
2021/01/30 04:41:41;;;;;;;14.20;8.52;;;1.20;90.00;;;;;;4976710;28;20031;-75
2021/01/30 04:44:25;;;;;;;11.23;7.80;;;1.20;90.10;;;;;;4986146;28;20030;-74
2021/01/30 04:47:02;;;;;;;10.05;7.38;;;1.20;90.00;;;;;;4985930;28;20024;-76
2021/01/30 04:49:39;;;;;;;10.00;7.25;;;1.20;90.10;;;;;;4999493;28;20030;-75
2021/01/30 04:52:28;;;;;;;10.85;7.60;;;1.20;90.00;;;;;;4990478;28;20033;-75
2021/01/30 04:55:21;;;;;;;10.38;7.20;;;1.20;90.00;;;;;;4953745;28;20038;-75
2021/01/30 04:58:08;;;;;;;12.80;9.05;;;1.20;90.00;;;;;;5022366;28;20041;-75
2021/01/30 05:00:43;;;;;;;10.20;7.72;;;1.20;89.70;;;;;;4996123;28;20106;-75
2021/01/30 05:03:26;;;;;;;10.35;7.78;;;1.20;89.80;;;;;;4997079;28;20038;-74
2021/01/30 05:05:57;;;;;;;10.55;7.10;;;1.10;89.70;;;;;;4989198;28;20037;-75
2021/01/30 05:08:37;;;;;;;9.52;6.60;;;1.10;89.50;;;;;;4995336;28;20030;-75
2021/01/30 05:11:08;;;;;;;9.23;6.05;;;1.10;89.60;;;;;;4989275;28;20050;-75
2021/01/30 05:13:38;;;;;;;10.70;6.32;;;1.10;89.80;;;;;;4990044;28;20039;-75
2021/01/30 05:16:10;;;;;;;9.68;6.20;;;1.10;89.30;;;;;;5025143;28;20026;-74
2021/01/30 05:18:47;;;;;;;9.63;7.00;;;1.10;89.00;;;;;;4985048;28;20035;-75
2021/01/30 05:21:23;;;;;;;10.40;6.85;;;1.10;88.80;;;;;;4977355;28;20026;-75
2021/01/30 05:23:52;;;;;;;8.25;5.40;;;1.00;88.90;;;;;;4974758;28;20396;-75
2021/01/30 05:26:56;;;;;;;10.32;6.40;;;1.10;88.40;;;;;;4987912;28;20117;-75
2021/01/30 05:29:24;;;;;;;;;;;1.00;87.90;;;;;;4991995;28;20457;-75
2021/01/30 05:32:12;;;;;;;10.60;6.20;;;1.00;88.10;;;;;;4996351;28;20390;-75
2021/01/30 05:34:55;;;;;;;11.10;7.28;;;1.00;88.10;;;;;;4989867;28;20054;-75
2021/01/30 05:37:31;;;;;;;8.35;6.57;;;0.90;88.30;;;;;;4992420;28;20031;-75
2021/01/30 05:40:19;;;;;;;8.13;6.10;;;0.90;88.50;;;;;;4991382;28;20034;-74
2021/01/30 05:42:54;;;;;;;7.40;4.43;;;0.90;88.30;;;;;;4990988;28;20121;-74
2021/01/30 05:45:40;;;;;;;7.70;4.57;;;0.90;88.30;;;;;;4999877;28;20026;-75
2021/01/30 05:48:11;;;;;;;8.65;6.25;;;0.80;88.00;;;;;;4992945;28;20053;-75
2021/01/30 05:50:51;;;;;;;9.70;6.25;;;0.80;88.00;;;;;;5001938;28;20038;-75
2021/01/30 05:53:21;;;;;;;9.05;6.18;;;0.80;88.00;;;;;;4993106;28;20018;-75
2021/01/30 05:55:47;;;;;;;10.07;6.88;;;0.80;88.10;;;;;;4992075;28;20137;-75
2021/01/30 05:58:16;;;;;;;11.60;6.65;;;0.80;88.20;;;;;;4997084;28;20556;-75
2021/01/30 06:00:42;;;;;;;9.75;5.82;;;0.80;88.50;;;;;;4991608;28;20030;-75
2021/01/30 06:03:23;;;;;;;8.23;5.88;;;0.70;88.40;;;;;;4996759;28;20056;-74
2021/01/30 06:06:07;;;;;;;9.85;6.60;;;0.80;88.60;;;;;;4999730;28;20033;-74
2021/01/30 06:08:32;;;;;;;12.55;7.28;;;0.70;88.70;;;;;;5031805;28;20031;-74
2021/01/30 06:11:08;;;;;;;8.18;6.13;;;0.70;88.80;;;;;;4991338;28;20130;-74
2021/01/30 06:13:34;;;;;;;10.88;7.22;;;0.80;89.00;;;;;;4986994;28;20027;-74
2021/01/30 06:16:02;;;;;;;8.52;5.70;;;0.80;89.00;;;;;;4988773;28;20579;-75
2021/01/30 06:18:40;;;;;;;8.80;6.55;;;0.90;89.00;;;;;;4992376;28;20037;-74
2021/01/30 06:21:21;;;;;;;8.73;6.20;;;0.90;88.80;;;;;;4992136;28;20030;-75
2021/01/30 06:24:07;;;;;;;8.13;5.22;;;0.90;88.80;;;;;;4992611;28;20038;-75
2021/01/30 06:26:49;;;;;;;8.80;6.13;;;0.90;88.80;;;;;;4996594;28;20022;-75
2021/01/30 06:29:37;;;;;;;6.63;4.57;;;0.80;88.90;;;;;;4992292;28;20030;-75
2021/01/30 06:32:18;;;;;;;7.40;5.38;;;0.80;89.00;;;;;;4998801;28;20034;-75
2021/01/30 06:35:08;;;;;;;9.25;4.43;;;0.80;89.20;;;;;;4989822;28;20038;-75
2021/01/30 06:37:49;;;;;;;7.60;5.50;;;0.80;89.30;;;;;;4993653;28;20676;-75
2021/01/30 06:40:26;;;;;;;7.18;5.32;;;0.80;89.40;;;;;;4994411;28;20026;-75
2021/01/30 06:43:10;;;;;;;8.10;5.32;;;0.80;89.50;;;;;;4994440;28;20073;-76
2021/01/30 06:45:41;;;;;;;7.90;5.35;;;0.80;89.60;;;;;;4990064;28;20022;-75
2021/01/30 06:48:22;;;;;;;6.40;4.65;;;0.80;89.70;;;;;;4997099;28;20027;-75
2021/01/30 06:50:47;;;;;;;8.90;4.32;;;0.70;89.80;;;;;;4995150;28;21191;-75
2021/01/30 06:53:21;;;;;;;7.72;3.60;;;0.70;89.70;;;;;;4991229;28;20033;-75
2021/01/30 06:55:46;;;;;;;4.72;3.45;;;0.70;89.60;;;;;;4993450;28;20092;-75
2021/01/30 06:58:32;;;;;;;6.10;3.80;;;0.70;89.40;;;;;;4998116;28;20030;-76
2021/01/30 07:01:13;;;;;;;5.03;3.85;;;0.80;89.40;;;;;;4994545;28;20030;-75
2021/01/30 07:04:02;;;;;;;4.65;3.80;;;0.80;89.40;;;;;;4979330;28;20079;-76
2021/01/30 07:07:01;;;;;;;5.38;3.53;;;0.80;89.20;;;;;;4983950;28;20071;-75
2021/01/30 07:09:41;;;;;;;4.45;2.53;;;0.80;89.30;;;;;;4995423;28;20071;-75
2021/01/30 07:12:25;;;;;;;6.43;2.35;;;0.80;89.40;;;;;;4993294;28;20037;-75
2021/01/30 07:15:03;;;;;;;5.03;3.20;;;0.80;88.90;;;;;;4984051;28;20133;-76
2021/01/30 07:17:48;;;;;;;4.10;2.83;;;0.80;88.90;;;;;;4985208;28;20027;-75
2021/01/30 07:20:26;;;;;;;3.03;1.98;;;0.80;89.00;;;;;;4997204;28;20039;-75
2021/01/30 07:23:05;;;;;;;4.25;2.17;;;0.80;87.90;;;;;;5020304;28;20500;-76
2021/01/30 07:25:49;;;;;;;3.88;2.38;;;0.80;87.40;;;;;;5002196;28;20388;-75
2021/01/30 07:28:40;;;;;;;5.45;3.55;;;0.80;88.40;;;;;;4977646;28;20056;-76
2021/01/30 07:31:29;;;;;;;4.68;2.97;;;0.80;87.60;;;;;;4991805;28;20034;-76
2021/01/30 07:34:18;;;;;;;5.00;2.67;;;0.80;87.70;;;;;;4997083;28;20062;-76
2021/01/30 07:37:07;;;;;;;4.82;2.83;;;0.90;87.90;;;;;;4997047;28;20087;-75
2021/01/30 07:39:52;;;;;;;5.40;2.58;;;0.90;87.60;;;;;;4988825;28;20061;-76
2021/01/30 07:42:47;;;;;;;4.78;2.83;;;0.90;87.60;;;;;;4990268;28;20030;-75
2021/01/30 07:45:28;;;;;;;4.05;2.50;;;0.90;87.60;;;;;;4986017;28;20027;-76
2021/01/30 07:48:15;;;;;;;4.30;2.83;;;0.90;87.40;;;;;;4980824;28;20058;-75
2021/01/30 07:50:50;;;;;;;5.43;3.63;;;0.90;87.20;;;;;;4985650;23;20051;-89
2021/01/30 07:53:21;;;;;;;5.72;3.08;;;0.90;86.60;;;;;;4972263;28;20039;-90
2021/01/30 07:56:17;;;;;;;5.25;3.15;;;0.90;86.70;;;;;;4987071;28;20027;-89
2021/01/30 07:58:52;;;;;;;7.20;2.92;;;0.90;86.60;;;;;;4954403;28;20031;-88
2021/01/30 08:01:36;;;;;;;6.25;4.20;;;0.90;86.70;;;;;;4954052;28;20024;-89
2021/01/30 08:04:31;;;;;;;6.18;3.45;;;0.90;86.80;;;;;;4960491;28;20532;-90
2021/01/30 08:07:33;;;;;;;5.13;3.08;;;1.00;87.00;;;;;;4972203;28;20041;-89
2021/01/30 08:10:44;;;;;;;6.05;4.05;;;1.00;87.20;;;;;;4972230;28;20117;-90
2021/01/30 08:13:24;;;;;;;4.85;3.42;;;1.00;87.20;;;;;;4963892;28;20038;-89
2021/01/30 08:15:57;;;;;;;6.90;3.92;;;1.00;87.10;;;;;;4977872;28;20104;-90
2021/01/30 08:18:44;;;;;;;8.05;3.78;;;1.00;86.80;;;;;;4979664;28;20088;-90
2021/01/30 08:21:27;;;;;;;6.13;4.15;;;1.00;86.90;;;;;;4981553;28;20389;-91
2021/01/30 08:24:02;;;;;;;;;;;1.00;87.00;;;;;;4989759;28;20495;-90
2021/01/30 08:27:00;;;;;;;5.72;3.33;;;1.00;86.90;;;;;;4973936;28;19909;-89
2021/01/30 08:29:38;;;;;;;6.95;4.82;;;1.00;86.70;;;;;;4981998;28;20093;-89
2021/01/30 08:32:25;;;;;;;8.35;4.55;;;1.00;86.70;;;;;;4973577;28;20025;-90
2021/01/30 08:35:17;;;;;;;8.13;4.53;;;1.00;87.00;;;;;;4966541;28;20047;-89
2021/01/30 08:37:55;;;;;;;8.45;4.57;;;1.00;87.10;;;;;;4971139;28;20057;-88
2021/01/30 08:40:43;;;;;;;6.97;4.82;;;1.10;87.20;;;;;;4967183;28;20031;-89
2021/01/30 08:43:34;;;;;;;4.68;3.75;;;1.10;87.20;;;;;;4972783;28;20043;-90
2021/01/30 08:46:24;;;;;;;7.90;5.03;;;1.10;86.90;;;;;;4973317;28;20042;-90
2021/01/30 08:49:15;;;;;;;6.55;4.82;;;1.20;87.00;;;;;;4984669;28;20030;-90
2021/01/30 08:51:42;;;;;;;6.75;4.10;;;1.20;86.60;;;;;;4996306;28;20039;-91
2021/01/30 08:54:31;;;;;;;5.82;4.28;;;1.10;85.90;;;;;;4975232;28;20031;-91
2021/01/30 08:56:57;;;;;;;7.60;4.65;;;1.10;86.30;;;;;;5023637;28;20030;-90
2021/01/30 08:59:43;;;;;;;5.85;3.85;;;1.20;85.90;;;;;;4988241;28;20103;-91
2021/01/30 09:02:27;;;;;;;8.00;5.20;;;1.20;86.10;;;;;;4969576;28;20039;-90
2021/01/30 09:05:00;;;;;;;5.80;3.72;;;1.30;86.10;;;;;;4972572;28;20031;-90
2021/01/30 09:07:48;;;;;;;8.75;5.13;;;1.30;85.70;;;;;;4971155;28;20033;-90
2021/01/30 09:10:23;;;;;;;6.97;4.65;;;1.30;85.70;;;;;;4972765;28;20118;-90
2021/01/30 09:12:56;;;;;;;7.53;5.07;;;1.30;85.80;;;;;;4967392;28;20109;-89
2021/01/30 09:15:40;;;;;;;7.28;4.70;;;1.40;85.60;;;;;;4996714;28;20091;-89
2021/01/30 09:18:28;;;;;;;5.68;4.18;;;1.40;85.30;;;;;;5048850;28;20041;-90
2021/01/30 09:20:56;;;;;;;7.35;4.10;;;1.40;85.00;;;;;;4971375;28;20027;-90
2021/01/30 09:23:40;;;;;;;6.32;4.50;;;1.30;84.30;;;;;;4981587;28;20067;-89
2021/01/30 09:26:21;;;;;;;7.45;4.97;;;1.30;84.90;;;;;;4965633;28;20035;-90
2021/01/30 09:28:55;;;;;;;6.75;4.55;;;1.40;84.90;;;;;;4971275;28;20027;-90
2021/01/30 09:31:20;;;;;;;8.15;5.07;;;1.40;84.90;;;;;;4985286;28;20027;-89
2021/01/30 09:34:17;;;;;;;7.78;5.20;;;1.50;85.00;;;;;;4976658;28;20023;-89
2021/01/30 09:36:45;;;;;;;8.55;5.65;;;1.50;84.60;;;;;;4968963;28;20030;-89
2021/01/30 09:39:34;;;;;;;7.72;5.30;;;1.60;84.60;;;;;;4967343;28;20023;-89
2021/01/30 09:42:21;;;;;;;7.85;5.50;;;1.60;84.70;;;;;;4965716;28;20045;-90
2021/01/30 09:45:08;;;;;;;6.45;4.93;;;1.70;84.30;;;;;;4965511;28;20046;-89
2021/01/30 09:47:35;;;;;;;7.28;5.00;;;1.70;84.60;;;;;;4982659;28;20025;-88
2021/01/30 09:50:05;;;;;;;7.65;5.20;;;1.80;84.50;;;;;;4967423;28;20039;-90
2021/01/30 09:52:31;;;;;;;8.38;5.72;;;1.80;83.80;;;;;;4974302;28;20029;-89
2021/01/30 09:55:17;;;;;;;8.98;5.30;;;1.80;84.30;;;;;;4984993;28;20072;-89
2021/01/30 09:57:44;;;;;;;7.72;5.47;;;1.90;84.20;;;;;;4971008;28;20023;-89
2021/01/30 10:00:16;;;;;;;8.73;6.22;;;2.00;84.50;;;;;;4973559;28;20030;-89
2021/01/30 10:02:42;;;;;;;8.77;5.72;;;2.10;83.70;;;;;;5006349;28;20046;-88
2021/01/30 10:05:13;;;;;;;11.70;6.28;;;2.10;83.20;;;;;;4985467;28;20028;-90
2021/01/30 10:07:40;;;;;;;8.27;5.80;;;2.20;83.50;;;;;;4985365;28;20031;-90
2021/01/30 10:10:30;;;;;;;8.80;6.13;;;2.20;83.10;;;;;;4977210;28;20031;-89
2021/01/30 10:12:58;;;;;;;9.32;5.35;;;2.30;83.40;;;;;;4986850;28;20097;-89
2021/01/30 10:15:34;;;;;;;9.52;5.72;;;2.30;83.70;;;;;;4968113;28;20023;-89
2021/01/30 10:18:07;;;;;;;7.53;4.82;;;2.30;83.40;;;;;;4981926;28;20088;-90
2021/01/30 10:20:59;;;;;;;7.28;4.40;;;2.30;83.20;;;;;;5000857;28;20030;-90
2021/01/30 10:23:38;;;;;;;6.30;4.25;;;2.40;82.70;;;;;;4979269;28;20121;-90
2021/01/30 10:26:06;;;;;;;6.75;4.55;;;2.30;82.70;;;;;;4976745;28;20027;-90
2021/01/30 10:29:03;;;;;;;5.70;3.97;;;2.30;82.70;;;;;;4998665;28;20050;-90
2021/01/30 10:31:40;;;;;;;6.65;4.28;;;2.40;83.00;;;;;;4985790;28;20433;-90
2021/01/30 10:34:25;;;;;;;22.20;15.43;;;2.50;83.20;;;;;;5004976;28;20046;-90
2021/01/30 10:37:12;;;;;;;31.48;21.55;;;2.50;82.30;;;;;;4981157;28;20074;-90
2021/01/30 10:39:43;;;;;;;10.98;7.70;;;2.50;82.30;;;;;;4973229;28;20026;-90
2021/01/30 10:42:14;;;;;;;9.10;6.63;;;2.60;82.10;;;;;;4976824;28;20113;-89
2021/01/30 10:44:45;;;;;;;7.47;5.15;;;2.60;81.60;;;;;;4985966;28;20027;-90
2021/01/30 10:47:13;;;;;;;11.27;8.68;;;2.60;82.10;;;;;;4982557;28;20027;-89
2021/01/30 10:49:38;;;;;;;10.23;7.05;;;2.60;82.00;;;;;;5001021;28;20050;-90
2021/01/30 10:52:14;;;;;;;8.77;6.22;;;2.60;82.00;;;;;;4979988;28;22654;-91
2021/01/30 10:54:41;;;;;;;15.57;9.30;;;2.70;82.20;;;;;;5005791;28;20566;-90
2021/01/30 10:57:22;;;;;;;9.13;6.22;;;2.60;81.80;;;;;;4993909;28;20475;-90
2021/01/30 11:00:02;;;;;;;8.25;4.35;;;2.70;82.10;;;;;;5005990;28;20072;-89
2021/01/30 11:02:41;;;;;;;9.13;5.88;;;2.70;82.50;;;;;;5012155;28;20062;-90
2021/01/30 11:05:12;;;;;;;5.40;3.60;;;2.60;81.10;;;;;;4968586;28;20035;-90
2021/01/30 11:07:40;;;;;;;7.25;4.63;;;2.60;80.70;;;;;;4963518;28;20429;-90
2021/01/30 11:10:18;;;;;;;5.45;3.72;;;2.60;80.80;;;;;;4964293;28;20443;-91
2021/01/30 11:12:43;;;;;;;6.38;3.80;;;2.60;80.70;;;;;;4969237;28;20033;-90
2021/01/30 11:15:40;;;;;;;5.82;3.75;;;2.70;80.80;;;;;;4969051;28;20027;-91
2021/01/30 11:18:28;;;;;;;4.90;3.33;;;2.70;80.50;;;;;;4968640;28;20038;-91
2021/01/30 11:20:55;;;;;;;4.45;3.30;;;2.80;81.00;;;;;;4961210;28;20023;-90
2021/01/30 11:23:48;;;;;;;7.55;3.28;;;2.80;80.90;;;;;;4971109;28;20046;-91
2021/01/30 11:26:35;;;;;;;6.28;3.47;;;2.80;79.70;;;;;;4993863;28;20020;-89
2021/01/30 11:29:04;;;;;;;5.88;3.60;;;2.70;79.30;;;;;;4978772;28;20031;-90
2021/01/30 11:31:30;;;;;;;6.00;3.80;;;2.70;79.30;;;;;;4972208;28;20054;-90
2021/01/30 11:33:57;;;;;;;6.65;3.78;;;2.70;79.30;;;;;;4972033;28;20061;-91
2021/01/30 11:36:24;;;;;;;6.55;3.83;;;2.70;79.60;;;;;;4987779;28;20027;-90
2021/01/30 11:39:02;;;;;;;6.45;4.07;;;2.70;79.90;;;;;;4974504;28;20034;-90
2021/01/30 11:41:27;;;;;;;5.05;3.80;;;2.70;79.90;;;;;;4972853;28;20451;-90
2021/01/30 11:43:53;;;;;;;6.97;4.40;;;2.80;80.10;;;;;;4973483;28;20041;-89
2021/01/30 11:46:19;;;;;;;7.78;4.10;;;2.80;79.90;;;;;;4971613;28;20031;-90
2021/01/30 11:48:46;;;;;;;4.00;2.67;;;2.80;80.20;;;;;;4969183;28;20430;-90
2021/01/30 11:51:20;;;;;;;6.80;3.70;;;2.90;80.40;;;;;;4966168;28;20048;-90
2021/01/30 11:53:46;;;;;;;6.78;4.43;;;2.90;79.60;;;;;;4968800;28;20045;-90
2021/01/30 11:56:11;;;;;;;5.85;4.07;;;2.90;79.60;;;;;;4983872;28;20469;-90
2021/01/30 11:58:37;;;;;;;6.90;4.45;;;2.90;79.30;;;;;;4979756;28;20033;-90
2021/01/30 12:01:03;;;;;;;5.85;3.97;;;2.80;78.80;;;;;;4971747;28;20031;-90
2021/01/30 12:03:29;;;;;;;6.13;4.30;;;2.80;78.80;;;;;;4987009;28;20130;-90
2021/01/30 12:05:56;;;;;;;6.68;4.38;;;2.80;79.20;;;;;;4999455;28;20029;-91
2021/01/30 12:08:23;;;;;;;8.00;4.57;;;2.90;79.50;;;;;;4988551;28;20031;-91
2021/01/30 12:10:50;;;;;;;8.00;4.70;;;2.90;79.50;;;;;;4986898;28;20118;-90
2021/01/30 12:13:16;;;;;;;6.55;4.75;;;2.90;78.70;;;;;;4985604;28;20094;-90
2021/01/30 12:15:41;;;;;;;7.80;5.35;;;2.90;79.20;;;;;;4971599;28;20026;-90
2021/01/30 12:18:13;;;;;;;8.18;5.32;;;2.90;79.40;;;;;;4964843;28;20026;-90
2021/01/30 12:20:41;;;;;;;6.95;4.72;;;2.90;79.30;;;;;;4972715;28;20027;-89
2021/01/30 12:23:07;;;;;;;6.45;4.40;;;3.00;79.40;;;;;;4971200;28;20049;-89
2021/01/30 12:25:32;;;;;;;7.60;5.03;;;3.00;79.80;;;;;;4972903;28;20027;-89
2021/01/30 12:28:00;;;;;;;7.20;5.00;;;3.10;79.80;;;;;;4961204;28;20380;-88
2021/01/30 12:30:29;;;;;;;7.65;4.82;;;3.10;79.30;;;;;;4955568;28;20483;-89
2021/01/30 12:32:55;;;;;;;6.85;4.50;;;3.10;78.60;;;;;;4960486;28;20088;-89
2021/01/30 12:35:24;;;;;;;8.95;4.78;;;3.00;78.10;;;;;;4970022;28;20027;-89
2021/01/30 12:37:51;;;;;;;7.75;5.32;;;3.00;78.40;;;;;;4971595;28;20038;-89
2021/01/30 12:40:18;;;;;;;10.35;5.18;;;3.00;79.10;;;;;;4971251;28;20027;-90
2021/01/30 12:42:44;;;;;;;7.90;5.72;;;3.00;78.80;;;;;;4975283;28;20103;-90
2021/01/30 12:45:10;;;;;;;7.97;5.03;;;3.00;78.60;;;;;;4966083;28;20114;-90
2021/01/30 12:47:35;;;;;;;10.98;6.00;;;3.10;79.10;;;;;;4967100;28;20054;-89
2021/01/30 12:50:02;;;;;;;7.50;5.55;;;3.10;79.30;;;;;;4967273;28;20070;-90
2021/01/30 12:52:28;;;;;;;9.70;6.55;;;3.10;79.40;;;;;;4970637;28;20039;-91
2021/01/30 12:54:53;;;;;;;9.13;5.97;;;3.10;79.70;;;;;;4959843;28;20403;-90
2021/01/30 12:57:19;;;;;;;11.27;7.15;;;3.10;79.80;;;;;;4963544;28;20110;-90
2021/01/30 12:59:45;;;;;;;8.60;6.10;;;3.10;80.00;;;;;;4956338;28;20031;-89
2021/01/30 13:02:11;;;;;;;9.20;5.38;;;3.10;80.10;;;;;;4954948;28;20077;-90
2021/01/30 13:04:37;;;;;;;12.05;6.63;;;3.00;79.40;;;;;;4970859;28;20073;-90
2021/01/30 13:07:02;;;;;;;9.65;5.85;;;2.90;79.30;;;;;;4970996;28;20065;-90
2021/01/30 13:09:29;;;;;;;9.55;6.03;;;2.80;79.80;;;;;;4971199;28;20049;-90
2021/01/30 13:11:56;;;;;;;9.68;6.65;;;2.80;79.80;;;;;;4972119;28;20023;-91
2021/01/30 13:14:22;;;;;;;9.07;6.13;;;2.80;79.70;;;;;;4972852;28;20031;-90
2021/01/30 13:16:48;;;;;;;9.15;6.43;;;2.80;79.90;;;;;;4970959;28;20387;-91
2021/01/30 13:19:17;;;;;;;9.50;5.97;;;2.80;80.00;;;;;;4971100;28;20035;-90
2021/01/30 13:21:50;;;;;;;10.20;6.32;;;2.80;80.00;;;;;;4971010;28;20071;-90
2021/01/30 13:24:17;;;;;;;9.50;6.10;;;2.80;80.30;;;;;;4971128;28;20121;-90
2021/01/30 13:26:43;;;;;;;8.98;6.70;;;2.80;80.30;;;;;;4985783;28;20023;-90
2021/01/30 13:29:10;;;;;;;9.00;5.95;;;2.80;79.40;;;;;;4960447;28;20484;-90